createdAt,value
2022-09-22T00:01:03.927Z,5.42
2022-09-22T00:06:06.842Z,5.41
2022-09-22T00:11:13.908Z,5.29
2022-09-22T00:16:18.063Z,5.26
2022-09-22T00:21:31.264Z,5.23
2022-09-22T00:26:34.890Z,5.24
2022-09-22T00:31:37.605Z,5.17
2022-09-22T00:36:40.426Z,5.10
2022-09-22T00:41:44.306Z,5.24
2022-09-22T00:46:47.138Z,5.11
2022-09-22T00:51:50.349Z,5.01
2022-09-22T00:56:53.022Z,4.97
2022-09-22T01:01:55.860Z,4.94
2022-09-22T01:06:58.620Z,5.00
2022-09-22T01:12:01.323Z,4.96
2022-09-22T01:17:04.098Z,4.94
2022-09-22T01:22:06.906Z,4.88
2022-09-22T01:27:09.619Z,4.84
2022-09-22T01:32:12.329Z,4.84
2022-09-22T01:37:15.217Z,4.82
2022-09-22T01:42:18.234Z,4.90
2022-09-22T01:47:21.915Z,4.87
2022-09-22T01:52:24.608Z,4.82
2022-09-22T01:57:27.410Z,4.71
2022-09-22T02:02:30.343Z,4.72
2022-09-22T02:07:33.832Z,4.75
2022-09-22T02:12:37.043Z,4.62
2022-09-22T02:17:40.291Z,4.62
2022-09-22T02:22:42.994Z,4.59
2022-09-22T02:27:45.696Z,4.59
2022-09-22T02:32:48.656Z,4.61
2022-09-22T02:37:51.351Z,4.42
2022-09-22T02:42:54.495Z,4.45
2022-09-22T02:47:57.673Z,4.36
2022-09-22T02:53:00.840Z,4.39
2022-09-22T02:58:04.353Z,4.37
2022-09-22T03:03:07.914Z,4.29
2022-09-22T03:08:11.393Z,4.39
2022-09-22T03:13:17.208Z,4.34
2022-09-22T03:18:20.802Z,4.28
2022-09-22T03:23:23.947Z,4.27
2022-09-22T03:28:27.110Z,4.25
2022-09-22T03:33:31.129Z,4.20
2022-09-22T03:38:34.862Z,4.23
2022-09-22T03:43:38.344Z,4.23
2022-09-22T03:48:44.979Z,4.22
2022-09-22T03:53:48.537Z,4.20
2022-09-22T03:58:51.709Z,4.19
2022-09-22T04:03:54.861Z,4.15
2022-09-22T04:08:58.065Z,4.11
2022-09-22T04:14:01.463Z,3.99
2022-09-22T04:19:07.445Z,3.98
2022-09-22T04:24:11.304Z,4.01
2022-09-22T04:29:18.484Z,4.06
2022-09-22T04:34:21.641Z,4.09
2022-09-22T04:39:24.842Z,4.08
2022-09-22T04:44:28.194Z,3.97
2022-09-22T04:49:32.075Z,3.84
2022-09-22T04:54:35.437Z,3.71
2022-09-22T04:59:38.233Z,3.84
2022-09-22T05:04:40.945Z,3.94
2022-09-22T05:09:43.652Z,4.02
2022-09-22T05:14:46.472Z,4.16
2022-09-22T05:19:49.347Z,4.21
2022-09-22T05:24:52.054Z,4.28
2022-09-22T05:29:55.274Z,4.32
2022-09-22T05:34:58.108Z,4.42
2022-09-22T05:40:00.934Z,4.62
2022-09-22T05:45:03.817Z,4.84
2022-09-22T05:50:07.288Z,4.88
2022-09-22T05:55:10.091Z,4.95
2022-09-22T06:00:13.103Z,5.09
2022-09-22T06:05:18.302Z,5.24
2022-09-22T06:10:22.245Z,5.53
2022-09-22T06:15:24.984Z,5.63
2022-09-22T06:20:27.715Z,5.85
2022-09-22T06:25:30.946Z,6.04
2022-09-22T06:30:33.649Z,6.25
2022-09-22T06:35:37.955Z,6.60
2022-09-22T06:40:42.316Z,6.75
2022-09-22T06:45:46.727Z,7.03
2022-09-22T06:50:49.466Z,7.26
2022-09-22T06:55:53.954Z,7.53
2022-09-22T07:00:57.781Z,7.78
2022-09-22T07:06:01.422Z,7.86
2022-09-22T07:11:04.753Z,8.01
2022-09-22T07:16:08.383Z,8.19
2022-09-22T07:21:11.938Z,8.40
2022-09-22T07:26:15.894Z,8.51
2022-09-22T07:31:19.274Z,8.54
2022-09-22T07:36:22.633Z,8.46
2022-09-22T07:41:27.610Z,8.61
2022-09-22T07:46:32.071Z,8.84
2022-09-22T07:51:35.437Z,8.98
2022-09-22T07:56:40.112Z,9.03
2022-09-22T08:01:44.431Z,9.20
2022-09-22T08:06:48.726Z,9.07
2022-09-22T08:11:53.129Z,9.17
2022-09-22T08:16:56.441Z,9.56
2022-09-22T08:21:59.623Z,9.57
2022-09-22T08:27:02.927Z,9.58
2022-09-22T08:32:06.332Z,10.12
2022-09-22T08:37:10.708Z,10.16
2022-09-22T08:42:13.901Z,9.96
2022-09-22T08:47:17.230Z,10.12
2022-09-22T08:52:20.925Z,10.23
2022-09-22T08:57:24.666Z,10.15
2022-09-22T09:02:28.255Z,10.54
2022-09-22T09:07:33.231Z,11.08
2022-09-22T09:12:36.496Z,10.79
2022-09-22T09:17:39.705Z,11.14
2022-09-22T09:22:45.094Z,11.26
2022-09-22T09:27:51.689Z,11.53
2022-09-22T09:32:56.021Z,11.38
2022-09-22T09:37:59.301Z,11.88
2022-09-22T09:43:03.655Z,11.58
2022-09-22T09:48:09.771Z,11.59
2022-09-22T09:53:12.944Z,11.63
2022-09-22T09:58:36.093Z,11.68
2022-09-22T10:03:39.296Z,12.05
2022-09-22T10:08:43.479Z,12.22
2022-09-22T10:13:47.210Z,12.59
2022-09-22T10:18:50.645Z,12.80
2022-09-22T10:23:54.002Z,12.58
2022-09-22T10:28:57.370Z,12.67
2022-09-22T10:34:01.766Z,12.92
2022-09-22T10:39:04.974Z,12.81
2022-09-22T10:44:34.615Z,12.62
2022-09-22T10:49:33.791Z,12.77
2022-09-22T10:54:39.363Z,12.81
2022-09-22T10:59:44.976Z,13.13
2022-09-22T11:04:48.290Z,13.08
2022-09-22T11:10:09.308Z,12.89
2022-09-22T11:15:13.269Z,13.12
2022-09-22T11:20:16.694Z,13.37
2022-09-22T11:25:19.802Z,13.55
2022-09-22T11:30:23.232Z,13.35
2022-09-22T11:35:26.137Z,13.37
2022-09-22T11:40:29.533Z,13.39
2022-09-22T11:45:32.270Z,13.58
2022-09-22T11:50:35.137Z,13.66
2022-09-22T11:55:38.024Z,13.51
2022-09-22T12:00:40.901Z,13.48
2022-09-22T12:05:44.719Z,13.80
2022-09-22T12:10:48.069Z,13.78
2022-09-22T12:15:50.988Z,13.83
2022-09-22T12:20:54.128Z,13.68
2022-09-22T12:25:57.247Z,13.71
2022-09-22T12:31:00.563Z,13.62
2022-09-22T12:36:03.635Z,13.71
2022-09-22T12:41:06.667Z,13.73
2022-09-22T12:46:09.475Z,13.70
2022-09-22T12:51:12.256Z,13.60
2022-09-22T12:56:15.470Z,13.81
2022-09-22T13:01:18.383Z,13.68
2022-09-22T13:06:21.150Z,13.73
2022-09-22T13:11:24.976Z,13.81
2022-09-22T13:16:27.716Z,13.80
2022-09-22T13:21:30.469Z,13.68
2022-09-22T13:26:35.246Z,13.87
2022-09-22T13:31:38.077Z,13.59
2022-09-22T13:36:41.508Z,13.74
2022-09-22T13:41:44.937Z,13.64
2022-09-22T13:46:47.765Z,13.64
2022-09-22T13:51:52.714Z,13.55
2022-09-22T13:56:56.488Z,13.72
2022-09-22T14:02:02.139Z,13.89
2022-09-22T14:07:06.398Z,13.79
2022-09-22T14:12:09.932Z,13.68
2022-09-22T14:17:13.430Z,13.76
2022-09-22T14:22:17.805Z,13.60
2022-09-22T14:27:21.582Z,13.38
2022-09-22T14:32:24.781Z,13.51
2022-09-22T14:37:29.235Z,13.46
2022-09-22T14:42:33.612Z,13.41
2022-09-22T14:47:40.347Z,13.52
2022-09-22T14:52:43.744Z,13.44
2022-09-22T14:57:48.013Z,13.45
2022-09-22T15:02:51.307Z,13.40
2022-09-22T15:07:54.418Z,13.37
2022-09-22T15:12:57.560Z,13.44
2022-09-22T15:18:19.338Z,13.38
2022-09-22T15:23:31.663Z,13.42
2022-09-22T15:28:37.858Z,13.37
2022-09-22T15:33:46.017Z,13.29
2022-09-22T15:38:50.136Z,13.14
2022-09-22T15:43:54.230Z,13.07
2022-09-22T15:48:57.493Z,13.08
2022-09-22T15:54:00.878Z,13.07
2022-09-22T15:59:04.901Z,12.99
2022-09-22T16:04:08.235Z,12.95
2022-09-22T16:09:11.522Z,12.80
2022-09-22T16:14:14.707Z,12.70
2022-09-22T16:19:18.028Z,12.67
2022-09-22T16:24:22.780Z,12.59
2022-09-22T16:29:26.279Z,12.47
2022-09-22T16:34:30.425Z,12.38
2022-09-22T16:39:33.881Z,12.33
2022-09-22T16:44:37.276Z,12.21
2022-09-22T16:49:41.172Z,12.14
2022-09-22T16:54:44.599Z,11.89
2022-09-22T16:59:52.725Z,11.87
2022-09-22T17:04:56.016Z,11.68
2022-09-22T17:10:00.453Z,11.43
2022-09-22T17:15:03.784Z,11.33
2022-09-22T17:20:07.137Z,11.17
2022-09-22T17:25:10.684Z,10.87
2022-09-22T17:30:14.435Z,10.78
2022-09-22T17:35:17.616Z,10.57
2022-09-22T17:40:21.674Z,10.37
2022-09-22T17:45:24.921Z,10.18
2022-09-22T17:50:46.091Z,10.22
2022-09-22T17:55:49.359Z,9.77
2022-09-22T18:00:52.668Z,9.72
2022-09-22T18:06:04.056Z,9.52
2022-09-22T18:11:07.361Z,9.39
2022-09-22T18:16:10.215Z,9.32
2022-09-22T18:21:12.974Z,9.29
2022-09-22T18:26:17.935Z,9.33
2022-09-22T18:31:27.345Z,9.07
2022-09-22T18:36:31.302Z,9.01
2022-09-22T18:41:36.434Z,8.83
2022-09-22T18:46:39.233Z,8.66
2022-09-22T18:51:42.573Z,8.60
2022-09-22T18:56:45.877Z,8.49
2022-09-22T19:01:49.961Z,8.33
2022-09-22T19:07:10.501Z,8.25
2022-09-22T19:12:13.290Z,8.18
2022-09-22T19:17:17.264Z,8.10
2022-09-22T19:22:22.096Z,7.98
2022-09-22T19:27:25.909Z,7.86
2022-09-22T19:32:28.934Z,7.86
2022-09-22T19:37:35.970Z,7.82
2022-09-22T19:42:40.424Z,7.72
2022-09-22T19:47:43.371Z,7.65
2022-09-22T19:52:46.128Z,7.59
2022-09-22T19:57:48.823Z,7.55
2022-09-22T20:02:57.983Z,7.47
2022-09-22T20:08:01.464Z,7.58
2022-09-22T20:13:24.478Z,7.44
2022-09-22T20:18:27.219Z,7.35
2022-09-22T20:23:29.920Z,7.29
2022-09-22T20:28:32.613Z,7.37
2022-09-22T20:33:38.669Z,7.50
2022-09-22T20:38:41.921Z,7.37
2022-09-22T20:43:44.634Z,7.33
2022-09-22T20:48:47.330Z,7.32
2022-09-22T20:53:50.017Z,7.23
2022-09-22T20:58:52.697Z,7.18
2022-09-22T21:03:55.471Z,7.20
2022-09-22T21:09:15.963Z,7.18
2022-09-22T21:14:18.979Z,7.19
2022-09-22T21:19:21.647Z,7.08
2022-09-22T21:24:25.249Z,7.00
2022-09-22T21:29:29.439Z,6.91
2022-09-22T21:34:32.657Z,6.80
2022-09-22T21:39:35.961Z,6.73
2022-09-22T21:44:39.762Z,6.74
2022-09-22T21:49:42.925Z,6.84
2022-09-22T21:54:46.788Z,6.80
2022-09-22T21:59:53.761Z,6.72
2022-09-22T22:05:00.884Z,6.72
2022-09-22T22:10:04.190Z,6.72
2022-09-22T22:15:07.429Z,6.64
2022-09-22T22:20:10.605Z,6.70
2022-09-22T22:25:17.392Z,6.63
2022-09-22T22:30:20.745Z,6.63
2022-09-22T22:35:26.496Z,6.50
2022-09-22T22:40:29.947Z,6.47
2022-09-22T22:45:33.440Z,6.45
2022-09-22T22:50:40.086Z,6.55
2022-09-22T22:55:43.353Z,6.37
2022-09-22T23:00:46.565Z,6.36
2022-09-22T23:05:56.887Z,6.31
2022-09-22T23:11:00.148Z,6.25
2022-09-22T23:16:04.040Z,6.10
2022-09-22T23:21:07.445Z,6.16
2022-09-22T23:26:10.624Z,6.20
2022-09-22T23:31:18.299Z,6.03
2022-09-22T23:36:21.750Z,5.97
2022-09-22T23:41:34.935Z,6.02
2022-09-22T23:46:38.603Z,5.95
2022-09-22T23:51:42.273Z,5.84
2022-09-22T23:56:47.568Z,5.75
